sensor_id;sensor_type;location;lat;lon;timestamp;pressure;altitude;pressure_sealevel;temperature;humidity
62402;BME280;48440;51.224;22.506;2023-04-07T00:00:53;98804.19;;;3.77;98.04
62402;BME280;48440;51.224;22.506;2023-04-07T00:03:19;98800.44;;;3.78;98.07
62402;BME280;48440;51.224;22.506;2023-04-07T00:05:46;98801.06;;;3.80;98.01
62402;BME280;48440;51.224;22.506;2023-04-07T00:08:11;98798.16;;;3.81;98.61
62402;BME280;48440;51.224;22.506;2023-04-07T00:10:36;98797.94;;;3.83;98.32
62402;BME280;48440;51.224;22.506;2023-04-07T00:13:02;98793.38;;;3.83;98.45
62402;BME280;48440;51.224;22.506;2023-04-07T00:15:27;98796.88;;;3.84;98.60
62402;BME280;48440;51.224;22.506;2023-04-07T00:17:53;98791.88;;;3.87;98.59
62402;BME280;48440;51.224;22.506;2023-04-07T00:20:18;98789.22;;;3.87;98.78
62402;BME280;48440;51.224;22.506;2023-04-07T00:22:44;98788.97;;;3.89;98.80
62402;BME280;48440;51.224;22.506;2023-04-07T00:25:09;98786.03;;;3.90;98.81
62402;BME280;48440;51.224;22.506;2023-04-07T00:27:35;98795.75;;;3.91;99.19
62402;BME280;48440;51.224;22.506;2023-04-07T00:30:01;98786.66;;;3.92;98.84
62402;BME280;48440;51.224;22.506;2023-04-07T00:32:26;98791.19;;;3.92;98.99
62402;BME280;48440;51.224;22.506;2023-04-07T00:34:51;98785.81;;;3.92;98.97
62402;BME280;48440;51.224;22.506;2023-04-07T00:37:17;98790.97;;;3.93;99.14
62402;BME280;48440;51.224;22.506;2023-04-07T00:39:43;98789.94;;;3.94;99.19
62402;BME280;48440;51.224;22.506;2023-04-07T00:42:09;98783.75;;;3.94;98.97
62402;BME280;48440;51.224;22.506;2023-04-07T00:44:35;98785.38;;;3.95;98.99
62402;BME280;48440;51.224;22.506;2023-04-07T00:47:00;98792.38;;;3.96;98.85
62402;BME280;48440;51.224;22.506;2023-04-07T00:49:26;98788.66;;;3.97;98.98
62402;BME280;48440;51.224;22.506;2023-04-07T00:51:54;98782.47;;;3.96;99.14
62402;BME280;48440;51.224;22.506;2023-04-07T00:54:21;98778.75;;;3.97;99.31
62402;BME280;48440;51.224;22.506;2023-04-07T00:56:47;98778.53;;;3.99;99.15
62402;BME280;48440;51.224;22.506;2023-04-07T00:59:12;98785.31;;;4.01;99.62
62402;BME280;48440;51.224;22.506;2023-04-07T01:01:49;98779.72;;;4.03;99.60
62402;BME280;48440;51.224;22.506;2023-04-07T01:04:31;98781.34;;;4.04;99.55
62402;BME280;48440;51.224;22.506;2023-04-07T01:07:05;98777.63;;;4.05;99.45
62402;BME280;48440;51.224;22.506;2023-04-07T01:09:40;98776.59;;;4.06;99.66
62402;BME280;48440;51.224;22.506;2023-04-07T01:14:54;98770.78;;;4.09;99.86
62402;BME280;48440;51.224;22.506;2023-04-07T01:17:24;98769.72;;;4.10;99.84
62402;BME280;48440;51.224;22.506;2023-04-07T01:20:01;98777.34;;;4.13;100.00
62402;BME280;48440;51.224;22.506;2023-04-07T01:25:21;98781.44;;;4.16;99.87
62402;BME280;48440;51.224;22.506;2023-04-07T01:30:31;98769.41;;;4.18;100.00
62402;BME280;48440;51.224;22.506;2023-04-07T01:32:58;98771.84;;;4.20;99.98
62402;BME280;48440;51.224;22.506;2023-04-07T01:35:26;98772.69;;;4.20;100.00
62402;BME280;48440;51.224;22.506;2023-04-07T01:37:54;98769.75;;;4.22;100.00
62402;BME280;48440;51.224;22.506;2023-04-07T01:40:20;98767.06;;;4.22;100.00
62402;BME280;48440;51.224;22.506;2023-04-07T01:42:47;98769.31;;;4.25;100.00
62402;BME280;48440;51.224;22.506;2023-04-07T01:45:15;98769.31;;;4.25;100.00
62402;BME280;48440;51.224;22.506;2023-04-07T01:47:41;98765.59;;;4.26;100.00
62402;BME280;48440;51.224;22.506;2023-04-07T01:50:09;98761.84;;;4.27;100.00
62402;BME280;48440;51.224;22.506;2023-04-07T01:52:35;98761.03;;;4.26;100.00
62402;BME280;48440;51.224;22.506;2023-04-07T01:55:03;98766.19;;;4.28;100.00
62402;BME280;48440;51.224;22.506;2023-04-07T01:57:29;98766.19;;;4.28;100.00
62402;BME280;48440;51.224;22.506;2023-04-07T01:59:55;98752.53;;;4.29;100.00
62402;BME280;48440;51.224;22.506;2023-04-07T02:02:20;98749.84;;;4.29;100.00
62402;BME280;48440;51.224;22.506;2023-04-07T02:04:48;98752.53;;;4.29;100.00
62402;BME280;48440;51.224;22.506;2023-04-07T02:07:21;98746.94;;;4.31;100.00
62402;BME280;48440;51.224;22.506;2023-04-07T02:09:50;98751.25;;;4.32;100.00
62402;BME280;48440;51.224;22.506;2023-04-07T02:12:18;98744.00;;;4.32;100.00
62402;BME280;48440;51.224;22.506;2023-04-07T02:14:44;98751.84;;;4.34;100.00
62402;BME280;48440;51.224;22.506;2023-04-07T02:17:10;98749.97;;;4.34;100.00
62402;BME280;48440;51.224;22.506;2023-04-07T02:19:38;98752.22;;;4.37;100.00
62402;BME280;48440;51.224;22.506;2023-04-07T02:22:04;98753.03;;;4.38;100.00
62402;BME280;48440;51.224;22.506;2023-04-07T02:24:30;98757.38;;;4.39;100.00
62402;BME280;48440;51.224;22.506;2023-04-07T02:26:55;98755.50;;;4.39;100.00
62402;BME280;48440;51.224;22.506;2023-04-07T02:29:21;98756.31;;;4.40;100.00
62402;BME280;48440;51.224;22.506;2023-04-07T02:31:47;98754.44;;;4.40;100.00
62402;BME280;48440;51.224;22.506;2023-04-07T02:34:12;98758.78;;;4.41;100.00
62402;BME280;48440;51.224;22.506;2023-04-07T02:36:37;98757.69;;;4.42;100.00
62402;BME280;48440;51.224;22.506;2023-04-07T02:39:03;98757.47;;;4.44;100.00
62402;BME280;48440;51.224;22.506;2023-04-07T02:41:28;98759.34;;;4.43;100.00
62402;BME280;48440;51.224;22.506;2023-04-07T02:43:54;98760.16;;;4.44;100.00
62402;BME280;48440;51.224;22.506;2023-04-07T02:46:19;98761.78;;;4.45;100.00
62402;BME280;48440;51.224;22.506;2023-04-07T02:48:44;98752.91;;;4.44;100.00
62402;BME280;48440;51.224;22.506;2023-04-07T02:51:10;98747.31;;;4.46;100.00
62402;BME280;48440;51.224;22.506;2023-04-07T02:53:35;98753.50;;;4.47;100.00
62402;BME280;48440;51.224;22.506;2023-04-07T02:56:01;98749.19;;;4.46;100.00
62402;BME280;48440;51.224;22.506;2023-04-07T02:58:26;98750.59;;;4.48;100.00
62402;BME280;48440;51.224;22.506;2023-04-07T03:00:51;98756.78;;;4.49;100.00
62402;BME280;48440;51.224;22.506;2023-04-07T03:03:17;98758.22;;;4.51;100.00
62402;BME280;48440;51.224;22.506;2023-04-07T03:05:42;98755.53;;;4.51;100.00
62402;BME280;48440;51.224;22.506;2023-04-07T03:08:08;98760.66;;;4.53;100.00
62402;BME280;48440;51.224;22.506;2023-04-07T03:10:33;98756.13;;;4.53;100.00
62402;BME280;48440;51.224;22.506;2023-04-07T03:12:58;98753.19;;;4.55;100.00
62402;BME280;48440;51.224;22.506;2023-04-07T03:15:24;98754.03;;;4.55;100.00
62402;BME280;48440;51.224;22.506;2023-04-07T03:17:49;98749.00;;;4.59;100.00
62402;BME280;48440;51.224;22.506;2023-04-07T03:20:15;98761.41;;;4.60;100.00
62402;BME280;48440;51.224;22.506;2023-04-07T03:22:41;98760.13;;;4.62;100.00
62402;BME280;48440;51.224;22.506;2023-04-07T03:25:09;98752.66;;;4.64;100.00
62402;BME280;48440;51.224;22.506;2023-04-07T03:27:35;98757.56;;;4.67;100.00
62402;BME280;48440;51.224;22.506;2023-04-07T03:30:00;98753.00;;;4.68;100.00
62402;BME280;48440;51.224;22.506;2023-04-07T03:32:26;98757.91;;;4.71;100.00
62402;BME280;48440;51.224;22.506;2023-04-07T03:34:51;98760.38;;;4.72;100.00
62402;BME280;48440;51.224;22.506;2023-04-07T03:37:17;98756.41;;;4.75;100.00
62402;BME280;48440;51.224;22.506;2023-04-07T03:39:42;98761.31;;;4.78;100.00
62402;BME280;48440;51.224;22.506;2023-04-07T03:42:07;98755.72;;;4.80;100.00
62402;BME280;48440;51.224;22.506;2023-04-07T03:44:33;98761.69;;;4.82;100.00
62402;BME280;48440;51.224;22.506;2023-04-07T03:46:59;98754.22;;;4.84;100.00
62402;BME280;48440;51.224;22.506;2023-04-07T03:49:24;98749.78;;;4.89;100.00
62402;BME280;48440;51.224;22.506;2023-04-07T03:51:51;98748.28;;;4.93;100.00
62402;BME280;48440;51.224;22.506;2023-04-07T03:54:16;98747.78;;;4.96;100.00
62402;BME280;48440;51.224;22.506;2023-04-07T03:56:42;98745.22;;;5.01;100.00
62402;BME280;48440;51.224;22.506;2023-04-07T03:59:07;98743.72;;;5.05;100.00
62402;BME280;48440;51.224;22.506;2023-04-07T04:01:33;98748.19;;;5.11;100.00
62402;BME280;48440;51.224;22.506;2023-04-07T04:03:58;98749.34;;;5.16;100.00
62402;BME280;48440;51.224;22.506;2023-04-07T04:06:24;98745.63;;;5.17;100.00
62402;BME280;48440;51.224;22.506;2023-04-07T04:08:51;98754.00;;;5.20;100.00
62402;BME280;48440;51.224;22.506;2023-04-07T04:11:17;98746.28;;;5.24;100.00
62402;BME280;48440;51.224;22.506;2023-04-07T04:13:42;98752.03;;;5.27;100.00
62402;BME280;48440;51.224;22.506;2023-04-07T04:16:07;98749.69;;;5.31;100.00
62402;BME280;48440;51.224;22.506;2023-04-07T04:18:33;98753.56;;;5.35;100.00
62402;BME280;48440;51.224;22.506;2023-04-07T04:20:58;98754.72;;;5.39;100.00
62402;BME280;48440;51.224;22.506;2023-04-07T04:23:24;98750.75;;;5.41;100.00
62402;BME280;48440;51.224;22.506;2023-04-07T04:25:49;98755.19;;;5.47;100.00
62402;BME280;48440;51.224;22.506;2023-04-07T04:28:15;98753.66;;;5.52;100.00
62402;BME280;48440;51.224;22.506;2023-04-07T04:30:41;98756.72;;;5.55;100.00
62402;BME280;48440;51.224;22.506;2023-04-07T04:33:06;98752.97;;;5.56;100.00
62402;BME280;48440;51.224;22.506;2023-04-07T04:35:33;98762.66;;;5.57;100.00
62402;BME280;48440;51.224;22.506;2023-04-07T04:37:58;98751.22;;;5.62;100.00
62402;BME280;48440;51.224;22.506;2023-04-07T04:40:23;98748.03;;;5.65;100.00
62402;BME280;48440;51.224;22.506;2023-04-07T04:42:49;98760.69;;;5.64;100.00
62402;BME280;48440;51.224;22.506;2023-04-07T04:45:15;98757.53;;;5.67;100.00
62402;BME280;48440;51.224;22.506;2023-04-07T04:47:40;98760.56;;;5.71;100.00
62402;BME280;48440;51.224;22.506;2023-04-07T04:50:08;98753.03;;;5.73;100.00
62402;BME280;48440;51.224;22.506;2023-04-07T04:52:34;98762.53;;;5.75;100.00
62402;BME280;48440;51.224;22.506;2023-04-07T04:55:00;98762.88;;;5.79;100.00
62402;BME280;48440;51.224;22.506;2023-04-07T04:57:25;98762.66;;;5.80;100.00
62402;BME280;48440;51.224;22.506;2023-04-07T04:59:50;98759.47;;;5.84;100.00
62402;BME280;48440;51.224;22.506;2023-04-07T05:02:16;98761.13;;;5.85;100.00
62402;BME280;48440;51.224;22.506;2023-04-07T05:04:41;98763.13;;;5.89;100.00
62402;BME280;48440;51.224;22.506;2023-04-07T05:07:07;98760.78;;;5.93;100.00
62402;BME280;48440;51.224;22.506;2023-04-07T05:09:32;98766.53;;;5.96;100.00
62402;BME280;48440;51.224;22.506;2023-04-07T05:11:57;98768.94;;;5.98;100.00
62402;BME280;48440;51.224;22.506;2023-04-07T05:14:23;98765.22;;;5.99;100.00
62402;BME280;48440;51.224;22.506;2023-04-07T05:16:48;98764.72;;;6.02;100.00
62402;BME280;48440;51.224;22.506;2023-04-07T05:19:14;98768.81;;;6.04;100.00
62402;BME280;48440;51.224;22.506;2023-04-07T05:21:39;98764.13;;;6.11;100.00
62402;BME280;48440;51.224;22.506;2023-04-07T05:24:05;98765.53;;;6.14;100.00
62402;BME280;48440;51.224;22.506;2023-04-07T05:26:30;98768.81;;;6.16;100.00
62402;BME280;48440;51.224;22.506;2023-04-07T05:28:56;98759.44;;;6.19;100.00
62402;BME280;48440;51.224;22.506;2023-04-07T05:31:21;98766.81;;;6.23;100.00
62402;BME280;48440;51.224;22.506;2023-04-07T05:33:46;98765.25;;;6.27;100.00
62402;BME280;48440;51.224;22.506;2023-04-07T05:36:12;98761.50;;;6.28;100.00
62402;BME280;48440;51.224;22.506;2023-04-07T05:38:37;98768.28;;;6.31;100.00
62402;BME280;48440;51.224;22.506;2023-04-07T05:41:03;98770.25;;;6.35;100.00
62402;BME280;48440;51.224;22.506;2023-04-07T05:43:28;98768.97;;;6.38;100.00
62402;BME280;48440;51.224;22.506;2023-04-07T05:45:54;98778.44;;;6.40;100.00
62402;BME280;48440;51.224;22.506;2023-04-07T05:48:19;98781.00;;;6.47;100.00
62402;BME280;48440;51.224;22.506;2023-04-07T05:50:44;98781.31;;;6.51;100.00
62402;BME280;48440;51.224;22.506;2023-04-07T05:53:10;98784.00;;;6.51;100.00
62402;BME280;48440;51.224;22.506;2023-04-07T05:55:35;98772.19;;;6.52;100.00
62402;BME280;48440;51.224;22.506;2023-04-07T05:58:01;98783.06;;;6.57;100.00
62402;BME280;48440;51.224;22.506;2023-04-07T06:00:26;98783.16;;;6.62;100.00
62402;BME280;48440;51.224;22.506;2023-04-07T06:02:52;98785.38;;;6.65;100.00
62402;BME280;48440;51.224;22.506;2023-04-07T06:05:18;98779.50;;;6.68;100.00
62402;BME280;48440;51.224;22.506;2023-04-07T06:07:43;98780.91;;;6.70;100.00
62402;BME280;48440;51.224;22.506;2023-04-07T06:10:08;98779.84;;;6.71;100.00
62402;BME280;48440;51.224;22.506;2023-04-07T06:12:34;98785.56;;;6.75;100.00
62402;BME280;48440;51.224;22.506;2023-04-07T06:15:00;98790.16;;;6.74;100.00
62402;BME280;48440;51.224;22.506;2023-04-07T06:17:25;98788.28;;;6.75;100.00
62402;BME280;48440;51.224;22.506;2023-04-07T06:19:50;98796.09;;;6.76;100.00
62402;BME280;48440;51.224;22.506;2023-04-07T06:22:16;98798.53;;;6.78;100.00
62402;BME280;48440;51.224;22.506;2023-04-07T06:24:41;98795.63;;;6.79;100.00
62402;BME280;48440;51.224;22.506;2023-04-07T06:27:07;98795.94;;;6.83;100.00
62402;BME280;48440;51.224;22.506;2023-04-07T06:29:32;98794.66;;;6.86;100.00
62402;BME280;48440;51.224;22.506;2023-04-07T06:31:58;98798.75;;;6.88;100.00
62402;BME280;48440;51.224;22.506;2023-04-07T06:34:24;98796.63;;;6.90;100.00
62402;BME280;48440;51.224;22.506;2023-04-07T06:36:49;98802.13;;;6.95;100.00
62402;BME280;48440;51.224;22.506;2023-04-07T06:39:15;98807.25;;;6.97;100.00
62402;BME280;48440;51.224;22.506;2023-04-07T06:41:40;98808.91;;;6.98;100.00
62402;BME280;48440;51.224;22.506;2023-04-07T06:44:08;98798.69;;;7.00;100.00
62402;BME280;48440;51.224;22.506;2023-04-07T06:46:35;98798.44;;;7.01;100.00
62402;BME280;48440;51.224;22.506;2023-04-07T06:49:01;98805.22;;;7.04;100.00
62402;BME280;48440;51.224;22.506;2023-04-07T06:51:28;98793.13;;;7.06;100.00
62402;BME280;48440;51.224;22.506;2023-04-07T06:53:53;98809.63;;;7.10;100.00
62402;BME280;48440;51.224;22.506;2023-04-07T06:56:19;98804.81;;;7.12;100.00
62402;BME280;48440;51.224;22.506;2023-04-07T06:58:45;98813.97;;;7.11;100.00
62402;BME280;48440;51.224;22.506;2023-04-07T07:01:11;98812.34;;;7.10;100.00
62402;BME280;48440;51.224;22.506;2023-04-07T07:03:36;98808.81;;;7.09;100.00
62402;BME280;48440;51.224;22.506;2023-04-07T07:06:02;98813.16;;;7.10;100.00
62402;BME280;48440;51.224;22.506;2023-04-07T07:08:28;98811.50;;;7.09;100.00
62402;BME280;48440;51.224;22.506;2023-04-07T07:10:54;98815.84;;;7.10;100.00
62402;BME280;48440;51.224;22.506;2023-04-07T07:13:22;98816.91;;;7.09;100.00
62402;BME280;48440;51.224;22.506;2023-04-07T07:15:48;98814.22;;;7.09;100.00
62402;BME280;48440;51.224;22.506;2023-04-07T07:18:14;98821.81;;;7.12;100.00
62402;BME280;48440;51.224;22.506;2023-04-07T07:20:40;98825.34;;;7.13;100.00
62402;BME280;48440;51.224;22.506;2023-04-07T07:23:05;98824.84;;;7.16;100.00
62402;BME280;48440;51.224;22.506;2023-04-07T07:25:31;98832.13;;;7.15;100.00
62402;BME280;48440;51.224;22.506;2023-04-07T07:27:57;98829.69;;;7.14;100.00
62402;BME280;48440;51.224;22.506;2023-04-07T07:30:23;98835.41;;;7.18;100.00
62402;BME280;48440;51.224;22.506;2023-04-07T07:32:49;98858.41;;;7.20;100.00
62402;BME280;48440;51.224;22.506;2023-04-07T07:35:15;98861.59;;;7.17;100.00
62402;BME280;48440;51.224;22.506;2023-04-07T07:37:41;98860.66;;;7.11;100.00
62402;BME280;48440;51.224;22.506;2023-04-07T07:40:09;98865.06;;;7.01;100.00
62402;BME280;48440;51.224;22.506;2023-04-07T07:42:35;98862.53;;;6.94;100.00
62402;BME280;48440;51.224;22.506;2023-04-07T07:45:01;98882.50;;;6.81;100.00
62402;BME280;48440;51.224;22.506;2023-04-07T07:47:27;98882.31;;;6.71;100.00
62402;BME280;48440;51.224;22.506;2023-04-07T07:49:52;98899.56;;;6.70;100.00
62402;BME280;48440;51.224;22.506;2023-04-07T07:52:18;98890.66;;;6.70;100.00
62402;BME280;48440;51.224;22.506;2023-04-07T07:54:46;98895.94;;;6.65;99.96
62402;BME280;48440;51.224;22.506;2023-04-07T07:57:12;98895.69;;;6.66;99.71
62402;BME280;48440;51.224;22.506;2023-04-07T07:59:38;98900.25;;;6.66;99.21
62402;BME280;48440;51.224;22.506;2023-04-07T08:02:09;98907.06;;;6.68;99.21
62402;BME280;48440;51.224;22.506;2023-04-07T08:04:35;98901.78;;;6.73;99.71
62402;BME280;48440;51.224;22.506;2023-04-07T08:07:02;98911.22;;;6.76;99.21
62402;BME280;48440;51.224;22.506;2023-04-07T08:09:27;98908.31;;;6.77;98.51
62402;BME280;48440;51.224;22.506;2023-04-07T08:11:53;98907.13;;;6.85;98.73
62402;BME280;48440;51.224;22.506;2023-04-07T08:14:19;98913.91;;;6.88;98.31
62402;BME280;48440;51.224;22.506;2023-04-07T08:16:45;98915.88;;;6.92;97.02
62402;BME280;48440;51.224;22.506;2023-04-07T08:19:12;98919.88;;;6.90;96.07
62402;BME280;48440;51.224;22.506;2023-04-07T08:21:38;98921.63;;;6.96;96.21
62402;BME280;48440;51.224;22.506;2023-04-07T08:24:04;98922.22;;;6.98;95.41
62402;BME280;48440;51.224;22.506;2023-04-07T08:26:30;98920.16;;;7.05;95.76
62402;BME280;48440;51.224;22.506;2023-04-07T08:28:55;98923.31;;;7.13;96.35
62402;BME280;48440;51.224;22.506;2023-04-07T08:31:22;98928.09;;;7.23;95.68
62402;BME280;48440;51.224;22.506;2023-04-07T08:33:48;98933.16;;;7.36;94.63
62402;BME280;48440;51.224;22.506;2023-04-07T08:36:19;98932.94;;;7.55;94.43
62402;BME280;48440;51.224;22.506;2023-04-07T08:38:44;98930.75;;;7.68;91.71
62402;BME280;48440;51.224;22.506;2023-04-07T08:41:11;98935.69;;;7.71;90.03
62402;BME280;48440;51.224;22.506;2023-04-07T08:43:38;98926.91;;;7.64;87.98
62402;BME280;48440;51.224;22.506;2023-04-07T08:46:04;98946.88;;;7.63;87.05
62402;BME280;48440;51.224;22.506;2023-04-07T08:48:31;98947.59;;;7.59;86.75
62402;BME280;48440;51.224;22.506;2023-04-07T08:51:06;98942.78;;;7.61;87.07
62402;BME280;48440;51.224;22.506;2023-04-07T08:53:42;98942.03;;;7.65;86.66
62402;BME280;48440;51.224;22.506;2023-04-07T08:56:15;98945.66;;;7.71;86.90
62402;BME280;48440;51.224;22.506;2023-04-07T08:58:41;98955.16;;;7.73;86.88
62402;BME280;48440;51.224;22.506;2023-04-07T09:01:08;98949.19;;;7.71;87.38
62402;BME280;48440;51.224;22.506;2023-04-07T09:03:33;98943.38;;;7.79;87.50
62402;BME280;48440;51.224;22.506;2023-04-07T09:05:59;98940.75;;;7.84;87.26
62402;BME280;48440;51.224;22.506;2023-04-07T09:08:25;98941.88;;;7.89;87.06
62402;BME280;48440;51.224;22.506;2023-04-07T09:10:51;98943.84;;;7.93;86.51
62402;BME280;48440;51.224;22.506;2023-04-07T09:13:16;98944.84;;;7.87;83.69
62402;BME280;48440;51.224;22.506;2023-04-07T09:15:42;98949.91;;;7.83;84.30
62402;BME280;48440;51.224;22.506;2023-04-07T09:18:07;98946.38;;;7.83;83.73
62402;BME280;48440;51.224;22.506;2023-04-07T09:23:31;98947.16;;;7.78;83.36
62402;BME280;48440;51.224;22.506;2023-04-07T09:25:58;98937.97;;;7.79;83.75
62402;BME280;48440;51.224;22.506;2023-04-07T09:28:25;98943.94;;;7.81;84.55
62402;BME280;48440;51.224;22.506;2023-04-07T09:30:54;98947.69;;;7.80;84.80
62402;BME280;48440;51.224;22.506;2023-04-07T09:33:29;98952.28;;;7.80;85.28
62402;BME280;48440;51.224;22.506;2023-04-07T09:35:54;98936.34;;;7.78;85.12
62402;BME280;48440;51.224;22.506;2023-04-07T09:38:21;98938.78;;;7.80;84.54
62402;BME280;48440;51.224;22.506;2023-04-07T09:40:46;98946.16;;;7.84;85.07
62402;BME280;48440;51.224;22.506;2023-04-07T09:43:17;98948.03;;;7.84;84.75
62402;BME280;48440;51.224;22.506;2023-04-07T09:45:43;98952.13;;;7.87;84.89
62402;BME280;48440;51.224;22.506;2023-04-07T09:48:19;98957.03;;;7.90;84.40
62402;BME280;48440;51.224;22.506;2023-04-07T09:50:46;98960.31;;;7.92;82.91
62402;BME280;48440;51.224;22.506;2023-04-07T09:53:16;98968.41;;;7.92;83.60
62402;BME280;48440;51.224;22.506;2023-04-07T09:55:43;98968.09;;;7.88;81.75
62402;BME280;48440;51.224;22.506;2023-04-07T09:58:12;98964.81;;;7.86;82.20
62402;BME280;48440;51.224;22.506;2023-04-07T10:00:41;98968.00;;;7.83;82.67
62402;BME280;48440;51.224;22.506;2023-04-07T10:03:07;98975.81;;;7.79;83.12
62402;BME280;48440;51.224;22.506;2023-04-07T10:05:33;98981.69;;;7.76;83.10
62402;BME280;48440;51.224;22.506;2023-04-07T10:08:00;98986.16;;;7.71;81.91
62402;BME280;48440;51.224;22.506;2023-04-07T10:10:27;98975.13;;;7.72;82.77
62402;BME280;48440;51.224;22.506;2023-04-07T10:12:55;98982.06;;;7.68;81.81
62402;BME280;48440;51.224;22.506;2023-04-07T10:15:22;98983.38;;;7.66;82.34
62402;BME280;48440;51.224;22.506;2023-04-07T10:17:48;98992.53;;;7.65;82.27
62402;BME280;48440;51.224;22.506;2023-04-07T10:20:17;98991.97;;;7.63;82.43
62402;BME280;48440;51.224;22.506;2023-04-07T10:22:45;98989.97;;;7.58;82.24
62402;BME280;48440;51.224;22.506;2023-04-07T10:25:15;98994.56;;;7.58;83.41
62402;BME280;48440;51.224;22.506;2023-04-07T10:27:54;98999.63;;;7.54;84.07
62402;BME280;48440;51.224;22.506;2023-04-07T10:30:28;99011.06;;;7.44;84.44
62402;BME280;48440;51.224;22.506;2023-04-07T10:32:54;99009.00;;;7.35;84.58
62402;BME280;48440;51.224;22.506;2023-04-07T10:35:20;99011.94;;;7.33;85.25
62402;BME280;48440;51.224;22.506;2023-04-07T10:40:35;99021.25;;;7.26;86.18
62402;BME280;48440;51.224;22.506;2023-04-07T10:43:01;99017.63;;;7.20;86.16
62402;BME280;48440;51.224;22.506;2023-04-07T10:48:12;99017.50;;;7.27;86.25
62402;BME280;48440;51.224;22.506;2023-04-07T10:50:38;99024.03;;;7.31;85.97
62402;BME280;48440;51.224;22.506;2023-04-07T10:53:10;99019.78;;;7.35;85.16
62402;BME280;48440;51.224;22.506;2023-04-07T10:58:18;99028.91;;;7.45;84.37
62402;BME280;48440;51.224;22.506;2023-04-07T11:03:23;99026.63;;;7.54;81.63
62402;BME280;48440;51.224;22.506;2023-04-07T11:05:49;99029.44;;;7.59;81.70
62402;BME280;48440;51.224;22.506;2023-04-07T11:08:14;99026.84;;;7.64;81.37
62402;BME280;48440;51.224;22.506;2023-04-07T11:10:46;99038.78;;;7.68;80.76
62402;BME280;48440;51.224;22.506;2023-04-07T11:13:12;99030.44;;;7.70;79.74
62402;BME280;48440;51.224;22.506;2023-04-07T11:15:37;99033.97;;;7.70;77.50
62402;BME280;48440;51.224;22.506;2023-04-07T11:18:15;99038.66;;;7.75;77.52
62402;BME280;48440;51.224;22.506;2023-04-07T11:20:49;99039.81;;;7.79;76.97
62402;BME280;48440;51.224;22.506;2023-04-07T11:23:16;99047.16;;;7.83;76.10
62402;BME280;48440;51.224;22.506;2023-04-07T11:25:44;99042.81;;;7.82;75.07
62402;BME280;48440;51.224;22.506;2023-04-07T11:28:11;99043.41;;;7.84;75.01
62402;BME280;48440;51.224;22.506;2023-04-07T11:30:37;99053.72;;;7.88;75.69
62402;BME280;48440;51.224;22.506;2023-04-07T11:33:03;99053.16;;;7.86;75.18
62402;BME280;48440;51.224;22.506;2023-04-07T11:35:29;99056.66;;;7.86;75.69
62402;BME280;48440;51.224;22.506;2023-04-07T11:37:59;99053.03;;;7.80;74.71
62402;BME280;48440;51.224;22.506;2023-04-07T11:40:33;99054.69;;;7.81;75.42
62402;BME280;48440;51.224;22.506;2023-04-07T11:43:00;99067.94;;;7.83;74.41
62402;BME280;48440;51.224;22.506;2023-04-07T11:45:26;99071.34;;;7.90;74.54
62402;BME280;48440;51.224;22.506;2023-04-07T11:47:51;99065.53;;;7.98;74.76
62402;BME280;48440;51.224;22.506;2023-04-07T11:50:37;99067.28;;;8.04;74.70
62402;BME280;48440;51.224;22.506;2023-04-07T11:53:03;99067.09;;;8.11;75.02
62402;BME280;48440;51.224;22.506;2023-04-07T11:55:28;99071.88;;;8.21;74.22
62402;BME280;48440;51.224;22.506;2023-04-07T11:57:54;99081.38;;;8.23;73.01
62402;BME280;48440;51.224;22.506;2023-04-07T12:00:20;99075.47;;;8.26;72.39
62402;BME280;48440;51.224;22.506;2023-04-07T12:02:45;99075.72;;;8.25;71.82
62402;BME280;48440;51.224;22.506;2023-04-07T12:05:11;99081.53;;;8.16;71.57
62402;BME280;48440;51.224;22.506;2023-04-07T12:07:38;99081.34;;;8.06;72.40
62402;BME280;48440;51.224;22.506;2023-04-07T12:10:21;99079.19;;;7.92;71.87
62402;BME280;48440;51.224;22.506;2023-04-07T12:12:47;99085.81;;;7.84;73.37
62402;BME280;48440;51.224;22.506;2023-04-07T12:15:14;99092.75;;;7.80;75.07
62402;BME280;48440;51.224;22.506;2023-04-07T12:17:44;99095.13;;;7.76;76.00
62402;BME280;48440;51.224;22.506;2023-04-07T12:20:14;99096.78;;;7.77;76.86
62402;BME280;48440;51.224;22.506;2023-04-07T12:22:40;99105.13;;;7.76;76.46
62402;BME280;48440;51.224;22.506;2023-04-07T12:25:06;99108.41;;;7.78;76.23
62402;BME280;48440;51.224;22.506;2023-04-07T12:27:32;99100.63;;;7.81;76.70
62402;BME280;48440;51.224;22.506;2023-04-07T12:29:57;99095.88;;;7.89;75.95
62402;BME280;48440;51.224;22.506;2023-04-07T12:32:23;99100.91;;;7.97;75.23
62402;BME280;48440;51.224;22.506;2023-04-07T12:34:49;99102.88;;;8.01;74.31
62402;BME280;48440;51.224;22.506;2023-04-07T12:37:15;99104.94;;;8.11;73.84
62402;BME280;48440;51.224;22.506;2023-04-07T12:39:41;99114.31;;;8.20;73.14
62402;BME280;48440;51.224;22.506;2023-04-07T12:42:06;99115.22;;;8.26;72.81
62402;BME280;48440;51.224;22.506;2023-04-07T12:44:36;99111.31;;;8.33;72.39
62402;BME280;48440;51.224;22.506;2023-04-07T12:47:01;99101.88;;;8.36;72.10
62402;BME280;48440;51.224;22.506;2023-04-07T12:49:27;99108.53;;;8.45;72.56
62402;BME280;48440;51.224;22.506;2023-04-07T12:51:52;99124.84;;;8.50;72.08
62402;BME280;48440;51.224;22.506;2023-04-07T12:54:18;99115.09;;;8.49;71.56
62402;BME280;48440;51.224;22.506;2023-04-07T12:56:43;99116.66;;;8.45;70.08
62402;BME280;48440;51.224;22.506;2023-04-07T12:59:09;99119.84;;;8.42;70.62
62402;BME280;48440;51.224;22.506;2023-04-07T13:01:34;99122.78;;;8.40;70.85
62402;BME280;48440;51.224;22.506;2023-04-07T13:04:01;99131.81;;;8.46;71.04
62402;BME280;48440;51.224;22.506;2023-04-07T13:06:27;99122.44;;;8.37;71.09
62402;BME280;48440;51.224;22.506;2023-04-07T13:08:52;99124.38;;;8.25;72.00
62402;BME280;48440;51.224;22.506;2023-04-07T13:11:18;99133.69;;;8.17;71.37
62402;BME280;48440;51.224;22.506;2023-04-07T13:13:43;99127.88;;;8.08;71.93